sensor_id;sensor_type;location;lat;lon;timestamp;temperature;humidity
2543;DHT22;1116;51.502;7.414;2022-11-15T00:01:38;11.40;43.50
2543;DHT22;1116;51.502;7.414;2022-11-15T00:04:09;11.50;43.50
2543;DHT22;1116;51.502;7.414;2022-11-15T00:06:40;11.60;43.60
2543;DHT22;1116;51.502;7.414;2022-11-15T00:09:11;11.60;43.60
2543;DHT22;1116;51.502;7.414;2022-11-15T00:11:45;11.80;43.80
2543;DHT22;1116;51.502;7.414;2022-11-15T00:14:19;11.60;43.80
2543;DHT22;1116;51.502;7.414;2022-11-15T00:16:53;11.60;45.30
2543;DHT22;1116;51.502;7.414;2022-11-15T00:19:24;11.70;45.80
2543;DHT22;1116;51.502;7.414;2022-11-15T00:21:55;11.70;45.40
2543;DHT22;1116;51.502;7.414;2022-11-15T00:24:25;11.70;45.80
2543;DHT22;1116;51.502;7.414;2022-11-15T00:26:56;11.80;46.80
2543;DHT22;1116;51.502;7.414;2022-11-15T00:29:29;11.90;46.40
2543;DHT22;1116;51.502;7.414;2022-11-15T00:32:04;11.90;47.30
2543;DHT22;1116;51.502;7.414;2022-11-15T00:34:36;11.90;49.00
2543;DHT22;1116;51.502;7.414;2022-11-15T00:37:07;11.90;48.90
2543;DHT22;1116;51.502;7.414;2022-11-15T00:39:37;12.00;50.60
2543;DHT22;1116;51.502;7.414;2022-11-15T00:42:12;12.10;52.50
2543;DHT22;1116;51.502;7.414;2022-11-15T00:44:44;12.20;51.80
2543;DHT22;1116;51.502;7.414;2022-11-15T00:47:23;12.20;51.60
2543;DHT22;1116;51.502;7.414;2022-11-15T00:49:53;12.30;50.80
2543;DHT22;1116;51.502;7.414;2022-11-15T00:52:24;12.30;50.50
2543;DHT22;1116;51.502;7.414;2022-11-15T00:54:55;12.30;51.00
2543;DHT22;1116;51.502;7.414;2022-11-15T00:57:26;12.40;50.80
2543;DHT22;1116;51.502;7.414;2022-11-15T01:00:07;12.40;51.00
2543;DHT22;1116;51.502;7.414;2022-11-15T01:02:45;12.50;50.80
2543;DHT22;1116;51.502;7.414;2022-11-15T01:05:16;12.50;49.80
2543;DHT22;1116;51.502;7.414;2022-11-15T01:07:49;12.60;50.10
2543;DHT22;1116;51.502;7.414;2022-11-15T01:10:22;12.60;49.30
2543;DHT22;1116;51.502;7.414;2022-11-15T01:12:54;12.70;48.60
2543;DHT22;1116;51.502;7.414;2022-11-15T01:15:24;12.70;48.70
2543;DHT22;1116;51.502;7.414;2022-11-15T01:17:59;12.80;47.80
2543;DHT22;1116;51.502;7.414;2022-11-15T01:20:30;12.80;47.10
2543;DHT22;1116;51.502;7.414;2022-11-15T01:23:01;12.80;46.90
2543;DHT22;1116;51.502;7.414;2022-11-15T01:25:32;12.80;47.70
2543;DHT22;1116;51.502;7.414;2022-11-15T01:28:05;12.80;47.00
2543;DHT22;1116;51.502;7.414;2022-11-15T01:30:38;12.80;47.60
2543;DHT22;1116;51.502;7.414;2022-11-15T01:33:12;12.80;47.80
2543;DHT22;1116;51.502;7.414;2022-11-15T01:35:42;12.80;47.50
2543;DHT22;1116;51.502;7.414;2022-11-15T01:38:13;12.90;46.70
2543;DHT22;1116;51.502;7.414;2022-11-15T01:40:44;12.90;46.70
2543;DHT22;1116;51.502;7.414;2022-11-15T01:43:23;12.90;46.30
2543;DHT22;1116;51.502;7.414;2022-11-15T01:45:58;13.00;44.90
2543;DHT22;1116;51.502;7.414;2022-11-15T01:48:34;12.90;44.80
2543;DHT22;1116;51.502;7.414;2022-11-15T01:51:07;13.00;44.90
2543;DHT22;1116;51.502;7.414;2022-11-15T01:53:42;13.00;45.00
2543;DHT22;1116;51.502;7.414;2022-11-15T01:56:18;13.10;44.90
2543;DHT22;1116;51.502;7.414;2022-11-15T01:58:51;13.10;44.50
2543;DHT22;1116;51.502;7.414;2022-11-15T02:01:24;13.00;44.80
2543;DHT22;1116;51.502;7.414;2022-11-15T02:04:00;13.00;44.10
2543;DHT22;1116;51.502;7.414;2022-11-15T02:06:32;13.10;43.60
2543;DHT22;1116;51.502;7.414;2022-11-15T02:09:07;13.20;43.20
2543;DHT22;1116;51.502;7.414;2022-11-15T02:15:14;13.10;42.80
2543;DHT22;1116;51.502;7.414;2022-11-15T02:17:58;13.20;42.40
2543;DHT22;1116;51.502;7.414;2022-11-15T02:21:05;13.30;42.00
2543;DHT22;1116;51.502;7.414;2022-11-15T02:29:59;13.20;41.40
2543;DHT22;1116;51.502;7.414;2022-11-15T02:32:42;13.20;41.40
2543;DHT22;1116;51.502;7.414;2022-11-15T02:35:22;13.20;41.60
2543;DHT22;1116;51.502;7.414;2022-11-15T02:37:57;13.30;42.10
2543;DHT22;1116;51.502;7.414;2022-11-15T02:40:35;13.30;41.30
2543;DHT22;1116;51.502;7.414;2022-11-15T02:43:10;13.20;40.70
2543;DHT22;1116;51.502;7.414;2022-11-15T02:45:58;13.20;41.20
2543;DHT22;1116;51.502;7.414;2022-11-15T02:48:33;13.10;41.40
2543;DHT22;1116;51.502;7.414;2022-11-15T02:51:05;13.30;42.10
2543;DHT22;1116;51.502;7.414;2022-11-15T02:53:36;13.30;41.80
2543;DHT22;1116;51.502;7.414;2022-11-15T02:56:09;13.30;41.10
2543;DHT22;1116;51.502;7.414;2022-11-15T03:01:51;13.20;41.40
2543;DHT22;1116;51.502;7.414;2022-11-15T03:04:34;13.20;42.00
2543;DHT22;1116;51.502;7.414;2022-11-15T03:07:13;13.10;41.90
2543;DHT22;1116;51.502;7.414;2022-11-15T03:09:54;13.10;42.10
2543;DHT22;1116;51.502;7.414;2022-11-15T03:12:30;13.10;41.90
2543;DHT22;1116;51.502;7.414;2022-11-15T03:15:09;13.10;41.80
2543;DHT22;1116;51.502;7.414;2022-11-15T03:17:44;13.10;42.20
2543;DHT22;1116;51.502;7.414;2022-11-15T03:20:20;13.10;42.60
2543;DHT22;1116;51.502;7.414;2022-11-15T03:22:53;13.10;42.60
2543;DHT22;1116;51.502;7.414;2022-11-15T03:25:26;13.10;42.10
2543;DHT22;1116;51.502;7.414;2022-11-15T03:28:02;13.10;42.10
2543;DHT22;1116;51.502;7.414;2022-11-15T03:30:36;13.20;42.50
2543;DHT22;1116;51.502;7.414;2022-11-15T03:33:08;13.20;42.20
2543;DHT22;1116;51.502;7.414;2022-11-15T03:35:44;13.20;42.30
2543;DHT22;1116;51.502;7.414;2022-11-15T03:38:20;13.20;42.20
2543;DHT22;1116;51.502;7.414;2022-11-15T03:40:59;13.20;42.10
2543;DHT22;1116;51.502;7.414;2022-11-15T03:43:33;13.20;42.60
2543;DHT22;1116;51.502;7.414;2022-11-15T03:46:10;13.20;43.10
2543;DHT22;1116;51.502;7.414;2022-11-15T03:48:45;13.20;42.70
2543;DHT22;1116;51.502;7.414;2022-11-15T03:51:20;13.30;42.90
2543;DHT22;1116;51.502;7.414;2022-11-15T03:53:51;13.30;42.70
2543;DHT22;1116;51.502;7.414;2022-11-15T03:56:25;13.30;42.80
2543;DHT22;1116;51.502;7.414;2022-11-15T03:58:56;13.30;43.50
2543;DHT22;1116;51.502;7.414;2022-11-15T04:01:28;13.30;42.80
2543;DHT22;1116;51.502;7.414;2022-11-15T04:03:59;13.30;42.60
2543;DHT22;1116;51.502;7.414;2022-11-15T04:06:32;13.40;42.40
2543;DHT22;1116;51.502;7.414;2022-11-15T04:09:03;13.40;42.10
2543;DHT22;1116;51.502;7.414;2022-11-15T04:11:34;13.40;42.30
2543;DHT22;1116;51.502;7.414;2022-11-15T04:14:05;13.40;42.50
2543;DHT22;1116;51.502;7.414;2022-11-15T04:16:38;13.40;42.50
2543;DHT22;1116;51.502;7.414;2022-11-15T04:19:11;13.40;42.20
2543;DHT22;1116;51.502;7.414;2022-11-15T04:21:56;13.30;42.30
2543;DHT22;1116;51.502;7.414;2022-11-15T04:24:40;13.30;42.10
2543;DHT22;1116;51.502;7.414;2022-11-15T04:27:10;13.30;42.50
2543;DHT22;1116;51.502;7.414;2022-11-15T04:29:41;13.30;42.70
2543;DHT22;1116;51.502;7.414;2022-11-15T04:32:12;13.30;42.80
2543;DHT22;1116;51.502;7.414;2022-11-15T04:34:43;13.70;43.30
2543;DHT22;1116;51.502;7.414;2022-11-15T04:37:16;13.40;42.50
2543;DHT22;1116;51.502;7.414;2022-11-15T04:39:49;13.30;42.30
2543;DHT22;1116;51.502;7.414;2022-11-15T04:42:20;13.30;42.20
2543;DHT22;1116;51.502;7.414;2022-11-15T04:44:51;13.30;42.50
2543;DHT22;1116;51.502;7.414;2022-11-15T04:47:28;13.30;42.70
2543;DHT22;1116;51.502;7.414;2022-11-15T04:49:59;13.30;43.00
2543;DHT22;1116;51.502;7.414;2022-11-15T04:52:39;13.30;43.00
2543;DHT22;1116;51.502;7.414;2022-11-15T04:55:10;13.30;43.20
2543;DHT22;1116;51.502;7.414;2022-11-15T04:57:41;13.30;42.80
2543;DHT22;1116;51.502;7.414;2022-11-15T05:00:16;13.30;43.00
2543;DHT22;1116;51.502;7.414;2022-11-15T05:02:49;13.40;42.80
2543;DHT22;1116;51.502;7.414;2022-11-15T05:05:33;13.40;43.00
2543;DHT22;1116;51.502;7.414;2022-11-15T05:08:06;13.30;42.80
2543;DHT22;1116;51.502;7.414;2022-11-15T05:10:37;13.40;42.70
2543;DHT22;1116;51.502;7.414;2022-11-15T05:13:08;13.30;42.80
2543;DHT22;1116;51.502;7.414;2022-11-15T05:15:39;13.30;43.20
2543;DHT22;1116;51.502;7.414;2022-11-15T05:18:09;13.40;42.90
2543;DHT22;1116;51.502;7.414;2022-11-15T05:20:45;13.40;43.60
2543;DHT22;1116;51.502;7.414;2022-11-15T05:23:18;13.40;42.60
2543;DHT22;1116;51.502;7.414;2022-11-15T05:25:49;13.40;42.30
2543;DHT22;1116;51.502;7.414;2022-11-15T05:28:20;13.40;42.90
2543;DHT22;1116;51.502;7.414;2022-11-15T05:30:51;13.40;42.70
2543;DHT22;1116;51.502;7.414;2022-11-15T05:33:22;13.50;43.00
2543;DHT22;1116;51.502;7.414;2022-11-15T05:35:57;13.40;43.10
2543;DHT22;1116;51.502;7.414;2022-11-15T05:38:33;13.40;42.90
2543;DHT22;1116;51.502;7.414;2022-11-15T05:41:06;13.40;42.80
2543;DHT22;1116;51.502;7.414;2022-11-15T05:43:38;13.40;43.10
2543;DHT22;1116;51.502;7.414;2022-11-15T05:46:12;13.40;42.50
2543;DHT22;1116;51.502;7.414;2022-11-15T05:48:47;13.50;42.50
2543;DHT22;1116;51.502;7.414;2022-11-15T05:51:21;13.50;43.00
2543;DHT22;1116;51.502;7.414;2022-11-15T05:53:56;13.40;43.20
2543;DHT22;1116;51.502;7.414;2022-11-15T05:56:29;13.50;43.00
2543;DHT22;1116;51.502;7.414;2022-11-15T05:59:00;13.50;43.20
2543;DHT22;1116;51.502;7.414;2022-11-15T06:01:33;13.50;42.50
2543;DHT22;1116;51.502;7.414;2022-11-15T06:04:04;13.50;42.60
2543;DHT22;1116;51.502;7.414;2022-11-15T06:06:36;13.50;42.90
2543;DHT22;1116;51.502;7.414;2022-11-15T06:09:10;13.50;43.00
2543;DHT22;1116;51.502;7.414;2022-11-15T06:11:40;13.50;43.40
2543;DHT22;1116;51.502;7.414;2022-11-15T06:14:11;13.50;43.40
2543;DHT22;1116;51.502;7.414;2022-11-15T06:16:44;13.50;43.20
2543;DHT22;1116;51.502;7.414;2022-11-15T06:19:15;13.50;43.90
2543;DHT22;1116;51.502;7.414;2022-11-15T06:21:46;13.50;44.10
2543;DHT22;1116;51.502;7.414;2022-11-15T06:24:19;13.50;45.30
2543;DHT22;1116;51.502;7.414;2022-11-15T06:26:50;13.40;44.60
2543;DHT22;1116;51.502;7.414;2022-11-15T06:29:23;13.50;44.60
2543;DHT22;1116;51.502;7.414;2022-11-15T06:31:54;13.50;44.50
2543;DHT22;1116;51.502;7.414;2022-11-15T06:34:25;13.50;44.00
2543;DHT22;1116;51.502;7.414;2022-11-15T06:36:55;13.60;43.40
2543;DHT22;1116;51.502;7.414;2022-11-15T06:39:30;13.60;42.40
2543;DHT22;1116;51.502;7.414;2022-11-15T06:42:01;13.50;42.50
2543;DHT22;1116;51.502;7.414;2022-11-15T06:44:32;13.70;42.60
2543;DHT22;1116;51.502;7.414;2022-11-15T06:47:05;13.60;42.00
2543;DHT22;1116;51.502;7.414;2022-11-15T06:49:38;13.50;41.40
2543;DHT22;1116;51.502;7.414;2022-11-15T06:52:09;13.50;41.50
2543;DHT22;1116;51.502;7.414;2022-11-15T06:54:43;13.50;41.20
2543;DHT22;1116;51.502;7.414;2022-11-15T06:57:14;13.50;40.40
2543;DHT22;1116;51.502;7.414;2022-11-15T06:59:45;13.50;40.10
2543;DHT22;1116;51.502;7.414;2022-11-15T07:02:16;13.50;39.90
2543;DHT22;1116;51.502;7.414;2022-11-15T07:04:48;13.40;40.10
2543;DHT22;1116;51.502;7.414;2022-11-15T07:07:19;13.50;40.30
2543;DHT22;1116;51.502;7.414;2022-11-15T07:09:52;13.50;39.30
2543;DHT22;1116;51.502;7.414;2022-11-15T07:12:26;13.60;37.90
2543;DHT22;1116;51.502;7.414;2022-11-15T07:15:00;13.60;37.30
2543;DHT22;1116;51.502;7.414;2022-11-15T07:17:32;13.60;36.90
2543;DHT22;1116;51.502;7.414;2022-11-15T07:20:06;13.60;35.60
2543;DHT22;1116;51.502;7.414;2022-11-15T07:22:37;13.60;35.00
2543;DHT22;1116;51.502;7.414;2022-11-15T07:25:11;13.60;35.00
2543;DHT22;1116;51.502;7.414;2022-11-15T07:27:42;13.60;33.40
2543;DHT22;1116;51.502;7.414;2022-11-15T07:30:13;13.60;32.80
2543;DHT22;1116;51.502;7.414;2022-11-15T07:32:44;13.60;32.40
2543;DHT22;1116;51.502;7.414;2022-11-15T07:35:15;13.70;31.30
2543;DHT22;1116;51.502;7.414;2022-11-15T07:37:56;13.60;31.20
2543;DHT22;1116;51.502;7.414;2022-11-15T07:40:31;13.60;31.30
2543;DHT22;1116;51.502;7.414;2022-11-15T07:43:06;13.60;30.70
2543;DHT22;1116;51.502;7.414;2022-11-15T07:45:41;13.60;30.20
2543;DHT22;1116;51.502;7.414;2022-11-15T07:48:12;13.50;30.40
2543;DHT22;1116;51.502;7.414;2022-11-15T07:50:43;13.50;30.00
2543;DHT22;1116;51.502;7.414;2022-11-15T07:53:14;13.50;30.00
2543;DHT22;1116;51.502;7.414;2022-11-15T07:55:47;13.40;29.80
2543;DHT22;1116;51.502;7.414;2022-11-15T07:58:20;13.40;30.00
2543;DHT22;1116;51.502;7.414;2022-11-15T08:00:51;13.30;29.70
2543;DHT22;1116;51.502;7.414;2022-11-15T08:03:22;13.30;29.70
2543;DHT22;1116;51.502;7.414;2022-11-15T08:05:53;13.40;29.90
2543;DHT22;1116;51.502;7.414;2022-11-15T08:08:24;13.40;29.90
2543;DHT22;1116;51.502;7.414;2022-11-15T08:11:00;13.30;29.90
2543;DHT22;1116;51.502;7.414;2022-11-15T08:13:32;13.30;29.40
2543;DHT22;1116;51.502;7.414;2022-11-15T08:16:05;13.40;28.90
2543;DHT22;1116;51.502;7.414;2022-11-15T08:18:36;13.40;28.10
2543;DHT22;1116;51.502;7.414;2022-11-15T08:21:09;13.40;28.20
2543;DHT22;1116;51.502;7.414;2022-11-15T08:23:45;13.40;28.10
2543;DHT22;1116;51.502;7.414;2022-11-15T08:26:19;13.90;28.30
2543;DHT22;1116;51.502;7.414;2022-11-15T08:28:53;13.50;26.60
2543;DHT22;1116;51.502;7.414;2022-11-15T08:31:24;13.50;26.30
2543;DHT22;1116;51.502;7.414;2022-11-15T08:33:55;13.50;25.60
2543;DHT22;1116;51.502;7.414;2022-11-15T08:36:26;13.50;25.50
2543;DHT22;1116;51.502;7.414;2022-11-15T08:39:11;13.50;24.10
2543;DHT22;1116;51.502;7.414;2022-11-15T08:41:44;13.50;24.40
2543;DHT22;1116;51.502;7.414;2022-11-15T08:44:15;13.50;23.80
2543;DHT22;1116;51.502;7.414;2022-11-15T08:46:46;13.50;23.80
2543;DHT22;1116;51.502;7.414;2022-11-15T08:49:17;13.50;22.50
2543;DHT22;1116;51.502;7.414;2022-11-15T08:51:53;13.60;22.70
2543;DHT22;1116;51.502;7.414;2022-11-15T08:54:24;13.60;21.60
2543;DHT22;1116;51.502;7.414;2022-11-15T08:56:58;13.70;21.20
2543;DHT22;1116;51.502;7.414;2022-11-15T08:59:31;13.70;21.00
2543;DHT22;1116;51.502;7.414;2022-11-15T09:02:02;13.70;20.50
2543;DHT22;1116;51.502;7.414;2022-11-15T09:04:34;13.70;20.80
2543;DHT22;1116;51.502;7.414;2022-11-15T09:07:05;13.70;20.10
2543;DHT22;1116;51.502;7.414;2022-11-15T09:09:37;13.70;20.30
2543;DHT22;1116;51.502;7.414;2022-11-15T09:12:11;13.60;19.60
2543;DHT22;1116;51.502;7.414;2022-11-15T09:14:42;13.60;19.60
2543;DHT22;1116;51.502;7.414;2022-11-15T09:17:12;13.70;20.10
2543;DHT22;1116;51.502;7.414;2022-11-15T09:19:51;13.60;19.50
2543;DHT22;1116;51.502;7.414;2022-11-15T09:22:22;13.60;19.20
2543;DHT22;1116;51.502;7.414;2022-11-15T09:24:53;13.60;18.80
2543;DHT22;1116;51.502;7.414;2022-11-15T09:27:28;13.60;18.60
2543;DHT22;1116;51.502;7.414;2022-11-15T09:29:59;13.50;17.40
2543;DHT22;1116;51.502;7.414;2022-11-15T09:32:30;13.60;18.20
2543;DHT22;1116;51.502;7.414;2022-11-15T09:35:06;13.70;18.00
2543;DHT22;1116;51.502;7.414;2022-11-15T09:37:39;13.80;18.20
2543;DHT22;1116;51.502;7.414;2022-11-15T09:40:13;13.70;17.30
2543;DHT22;1116;51.502;7.414;2022-11-15T09:43:11;13.70;17.00
2543;DHT22;1116;51.502;7.414;2022-11-15T09:45:58;13.70;17.10
2543;DHT22;1116;51.502;7.414;2022-11-15T09:48:48;13.70;17.10
2543;DHT22;1116;51.502;7.414;2022-11-15T09:51:29;13.80;16.90
2543;DHT22;1116;51.502;7.414;2022-11-15T09:54:09;13.80;15.20
2543;DHT22;1116;51.502;7.414;2022-11-15T09:57:11;13.80;15.40
2543;DHT22;1116;51.502;7.414;2022-11-15T09:59:55;13.80;14.90
2543;DHT22;1116;51.502;7.414;2022-11-15T10:03:06;13.90;14.30
2543;DHT22;1116;51.502;7.414;2022-11-15T10:05:43;13.80;14.30
2543;DHT22;1116;51.502;7.414;2022-11-15T10:08:30;13.80;13.30
2543;DHT22;1116;51.502;7.414;2022-11-15T10:11:05;13.90;12.70
2543;DHT22;1116;51.502;7.414;2022-11-15T10:14:01;13.80;11.20
2543;DHT22;1116;51.502;7.414;2022-11-15T10:17:01;14.00;12.30
2543;DHT22;1116;51.502;7.414;2022-11-15T10:19:39;13.90;11.70
2543;DHT22;1116;51.502;7.414;2022-11-15T10:22:23;13.90;11.10
2543;DHT22;1116;51.502;7.414;2022-11-15T10:25:13;14.00;11.90
2543;DHT22;1116;51.502;7.414;2022-11-15T10:27:52;14.10;11.60
2543;DHT22;1116;51.502;7.414;2022-11-15T10:30:31;14.20;11.60
2543;DHT22;1116;51.502;7.414;2022-11-15T10:33:33;14.20;10.60
2543;DHT22;1116;51.502;7.414;2022-11-15T10:36:21;14.30;9.90
2543;DHT22;1116;51.502;7.414;2022-11-15T10:38:56;14.30;10.60
2543;DHT22;1116;51.502;7.414;2022-11-15T10:41:35;14.40;8.50
2543;DHT22;1116;51.502;7.414;2022-11-15T10:44:22;14.00;7.40
2543;DHT22;1116;51.502;7.414;2022-11-15T10:47:22;14.20;7.70
2543;DHT22;1116;51.502;7.414;2022-11-15T10:50:07;14.30;7.70
2543;DHT22;1116;51.502;7.414;2022-11-15T10:52:45;14.70;6.40
2543;DHT22;1116;51.502;7.414;2022-11-15T10:55:24;14.70;7.10
2543;DHT22;1116;51.502;7.414;2022-11-15T10:58:00;14.40;6.90
2543;DHT22;1116;51.502;7.414;2022-11-15T11:00:34;14.40;6.00
2543;DHT22;1116;51.502;7.414;2022-11-15T11:03:28;14.30;4.80
2543;DHT22;1116;51.502;7.414;2022-11-15T11:06:22;14.30;6.70
2543;DHT22;1116;51.502;7.414;2022-11-15T11:08:57;14.30;5.00
2543;DHT22;1116;51.502;7.414;2022-11-15T11:11:46;14.30;4.20
2543;DHT22;1116;51.502;7.414;2022-11-15T11:14:21;14.30;4.10
2543;DHT22;1116;51.502;7.414;2022-11-15T11:17:02;14.30;5.10
2543;DHT22;1116;51.502;7.414;2022-11-15T11:19:53;14.40;3.40
2543;DHT22;1116;51.502;7.414;2022-11-15T11:22:34;14.40;4.60
2543;DHT22;1116;51.502;7.414;2022-11-15T11:25:19;14.70;3.70
2543;DHT22;1116;51.502;7.414;2022-11-15T11:28:15;14.50;4.30
2543;DHT22;1116;51.502;7.414;2022-11-15T11:30:57;14.60;3.30
2543;DHT22;1116;51.502;7.414;2022-11-15T11:33:32;14.60;3.20
2543;DHT22;1116;51.502;7.414;2022-11-15T11:36:12;14.70;2.70
2543;DHT22;1116;51.502;7.414;2022-11-15T11:38:56;14.70;1.90
2543;DHT22;1116;51.502;7.414;2022-11-15T11:41:42;14.70;1.50
2543;DHT22;1116;51.502;7.414;2022-11-15T11:44:29;14.80;1.00
2543;DHT22;1116;51.502;7.414;2022-11-15T11:47:05;14.90;1.00
2543;DHT22;1116;51.502;7.414;2022-11-15T11:49:43;14.80;1.00
2543;DHT22;1116;51.502;7.414;2022-11-15T11:52:18;14.90;1.00
2543;DHT22;1116;51.502;7.414;2022-11-15T11:55:01;14.90;1.00
2543;DHT22;1116;51.502;7.414;2022-11-15T11:57:39;15.00;1.00
2543;DHT22;1116;51.502;7.414;2022-11-15T12:00:18;15.10;1.00
2543;DHT22;1116;51.502;7.414;2022-11-15T12:03:00;15.20;1.00
2543;DHT22;1116;51.502;7.414;2022-11-15T12:05:39;15.30;1.00
2543;DHT22;1116;51.502;7.414;2022-11-15T12:08:25;15.70;1.00
2543;DHT22;1116;51.502;7.414;2022-11-15T12:11:08;15.30;1.00
2543;DHT22;1116;51.502;7.414;2022-11-15T12:13:40;15.30;1.00
2543;DHT22;1116;51.502;7.414;2022-11-15T12:16:16;15.50;1.00
2543;DHT22;1116;51.502;7.414;2022-11-15T12:18:51;15.30;1.00
2543;DHT22;1116;51.502;7.414;2022-11-15T12:21:32;15.30;1.00
2543;DHT22;1116;51.502;7.414;2022-11-15T12:24:08;15.30;1.00
2543;DHT22;1116;51.502;7.414;2022-11-15T12:26:48;15.30;1.00
2543;DHT22;1116;51.502;7.414;2022-11-15T12:29:26;15.20;1.00
2543;DHT22;1116;51.502;7.414;2022-11-15T12:32:00;15.20;1.00
2543;DHT22;1116;51.502;7.414;2022-11-15T12:34:43;15.30;1.00
2543;DHT22;1116;51.502;7.414;2022-11-15T12:40:22;15.20;1.00
2543;DHT22;1116;51.502;7.414;2022-11-15T12:43:10;15.20;1.00
2543;DHT22;1116;51.502;7.414;2022-11-15T12:46:02;15.30;1.00
2543;DHT22;1116;51.502;7.414;2022-11-15T12:48:54;15.30;1.00
2543;DHT22;1116;51.502;7.414;2022-11-15T12:54:52;15.40;1.00
2543;DHT22;1116;51.502;7.414;2022-11-15T12:57:34;15.30;1.00
2543;DHT22;1116;51.502;7.414;2022-11-15T13:03:31;15.40;1.00
2543;DHT22;1116;51.502;7.414;2022-11-15T13:06:06;15.30;1.00
2543;DHT22;1116;51.502;7.414;2022-11-15T13:08:43;15.10;1.00
2543;DHT22;1116;51.502;7.414;2022-11-15T13:11:46;15.20;1.00
2543;DHT22;1116;51.502;7.414;2022-11-15T13:14:46;15.10;1.00
2543;DHT22;1116;51.502;7.414;2022-11-15T13:17:35;15.10;1.00
2543;DHT22;1116;51.502;7.414;2022-11-15T13:20:31;15.00;1.00
2543;DHT22;1116;51.502;7.414;2022-11-15T13:23:09;15.00;1.00
2543;DHT22;1116;51.502;7.414;2022-11-15T13:25:54;15.20;1.00
2543;DHT22;1116;51.502;7.414;2022-11-15T13:28:32;15.20;1.00
2543;DHT22;1116;51.502;7.414;2022-11-15T13:31:18;15.50;1.00
2543;DHT22;1116;51.502;7.414;2022-11-15T13:33:51;15.30;1.00
2543;DHT22;1116;51.502;7.414;2022-11-15T13:36:27;15.30;1.00
2543;DHT22;1116;51.502;7.414;2022-11-15T13:39:04;15.30;1.00
2543;DHT22;1116;51.502;7.414;2022-11-15T13:41:36;15.30;1.00
2543;DHT22;1116;51.502;7.414;2022-11-15T13:44:23;15.30;1.00
2543;DHT22;1116;51.502;7.414;2022-11-15T13:47:02;15.20;1.00
2543;DHT22;1116;51.502;7.414;2022-11-15T13:49:34;15.10;1.00
2543;DHT22;1116;51.502;7.414;2022-11-15T13:52:11;15.20;1.00
2543;DHT22;1116;51.502;7.414;2022-11-15T13:54:47;15.10;1.00
2543;DHT22;1116;51.502;7.414;2022-11-15T13:57:23;15.10;1.00
2543;DHT22;1116;51.502;7.414;2022-11-15T13:59:59;15.10;1.00
2543;DHT22;1116;51.502;7.414;2022-11-15T14:02:32;15.00;1.00
2543;DHT22;1116;51.502;7.414;2022-11-15T14:05:15;14.80;1.00
2543;DHT22;1116;51.502;7.414;2022-11-15T14:07:57;14.90;1.00
2543;DHT22;1116;51.502;7.414;2022-11-15T14:10:30;14.80;1.00
2543;DHT22;1116;51.502;7.414;2022-11-15T14:13:03;14.80;1.00
2543;DHT22;1116;51.502;7.414;2022-11-15T14:15:37;14.80;1.00
2543;DHT22;1116;51.502;7.414;2022-11-15T14:18:44;14.80;1.00
2543;DHT22;1116;51.502;7.414;2022-11-15T14:21:16;14.70;1.00
2543;DHT22;1116;51.502;7.414;2022-11-15T14:23:49;14.70;1.00
2543;DHT22;1116;51.502;7.414;2022-11-15T14:26:28;15.00;1.00
2543;DHT22;1116;51.502;7.414;2022-11-15T14:29:23;14.80;1.00
2543;DHT22;1116;51.502;7.414;2022-11-15T14:32:05;14.80;1.00
2543;DHT22;1116;51.502;7.414;2022-11-15T14:34:47;14.70;1.00
2543;DHT22;1116;51.502;7.414;2022-11-15T14:37:21;14.80;1.00
2543;DHT22;1116;51.502;7.414;2022-11-15T14:39:56;15.20;1.00
2543;DHT22;1116;51.502;7.414;2022-11-15T14:42:27;14.70;1.00
2543;DHT22;1116;51.502;7.414;2022-11-15T14:44:58;14.70;1.00
2543;DHT22;1116;51.502;7.414;2022-11-15T14:47:32;14.60;1.00
2543;DHT22;1116;51.502;7.414;2022-11-15T14:50:10;14.60;1.00
2543;DHT22;1116;51.502;7.414;2022-11-15T14:52:41;14.70;1.00
2543;DHT22;1116;51.502;7.414;2022-11-15T14:55:17;14.70;1.00
2543;DHT22;1116;51.502;7.414;2022-11-15T14:57:49;14.70;1.00
2543;DHT22;1116;51.502;7.414;2022-11-15T15:00:21;14.70;1.00
2543;DHT22;1116;51.502;7.414;2022-11-15T15:02:53;14.70;1.00
2543;DHT22;1116;51.502;7.414;2022-11-15T15:05:31;15.00;1.60
2543;DHT22;1116;51.502;7.414;2022-11-15T15:08:03;14.70;1.00
2543;DHT22;1116;51.502;7.414;2022-11-15T15:10:35;14.60;1.00
2543;DHT22;1116;51.502;7.414;2022-11-15T15:13:16;14.60;1.00
2543;DHT22;1116;51.502;7.414;2022-11-15T15:15:48;14.60;1.00
2543;DHT22;1116;51.502;7.414;2022-11-15T15:18:21;14.50;2.00
2543;DHT22;1116;51.502;7.414;2022-11-15T15:20:57;14.60;1.30
2543;DHT22;1116;51.502;7.414;2022-11-15T15:23:33;14.60;1.30
2543;DHT22;1116;51.502;7.414;2022-11-15T15:26:04;14.50;1.50
2543;DHT22;1116;51.502;7.414;2022-11-15T15:28:35;14.50;1.30
2543;DHT22;1116;51.502;7.414;2022-11-15T15:31:08;14.90;1.80
2543;DHT22;1116;51.502;7.414;2022-11-15T15:33:39;14.50;1.60
2543;DHT22;1116;51.502;7.414;2022-11-15T15:36:17;14.50;2.00
2543;DHT22;1116;51.502;7.414;2022-11-15T15:38:48;14.50;2.30
2543;DHT22;1116;51.502;7.414;2022-11-15T15:41:20;14.60;1.90
2543;DHT22;1116;51.502;7.414;2022-11-15T15:43:51;14.50;2.00
2543;DHT22;1116;51.502;7.414;2022-11-15T15:46:22;14.50;2.40
2543;DHT22;1116;51.502;7.414;2022-11-15T15:48:57;14.50;2.70
2543;DHT22;1116;51.502;7.414;2022-11-15T15:51:31;14.40;2.70
2543;DHT22;1116;51.502;7.414;2022-11-15T15:54:04;14.80;3.80
2543;DHT22;1116;51.502;7.414;2022-11-15T15:56:35;14.50;3.00
2543;DHT22;1116;51.502;7.414;2022-11-15T15:59:06;14.70;3.50
2543;DHT22;1116;51.502;7.414;2022-11-15T16:01:37;14.40;3.40
2543;DHT22;1116;51.502;7.414;2022-11-15T16:04:08;14.40;3.60
2543;DHT22;1116;51.502;7.414;2022-11-15T16:06:43;14.40;3.90
2543;DHT22;1116;51.502;7.414;2022-11-15T16:09:18;14.50;4.00
2543;DHT22;1116;51.502;7.414;2022-11-15T16:12:09;14.50;3.90
2543;DHT22;1116;51.502;7.414;2022-11-15T16:14:42;14.50;4.00
2543;DHT22;1116;51.502;7.414;2022-11-15T16:17:17;14.50;4.00
2543;DHT22;1116;51.502;7.414;2022-11-15T16:19:49;14.50;4.00
2543;DHT22;1116;51.502;7.414;2022-11-15T16:22:23;14.40;4.50
2543;DHT22;1116;51.502;7.414;2022-11-15T16:24:54;14.40;4.50
2543;DHT22;1116;51.502;7.414;2022-11-15T16:27:25;14.40;4.80
2543;DHT22;1116;51.502;7.414;2022-11-15T16:29:56;14.40;4.70
2543;DHT22;1116;51.502;7.414;2022-11-15T16:32:27;14.50;4.60
2543;DHT22;1116;51.502;7.414;2022-11-15T16:34:57;14.50;4.70
2543;DHT22;1116;51.502;7.414;2022-11-15T16:37:31;14.50;4.70
2543;DHT22;1116;51.502;7.414;2022-11-15T16:40:07;14.40;4.60
2543;DHT22;1116;51.502;7.414;2022-11-15T16:42:44;14.50;4.60
2543;DHT22;1116;51.502;7.414;2022-11-15T16:45:15;14.50;5.50
2543;DHT22;1116;51.502;7.414;2022-11-15T16:47:49;14.50;4.80
2543;DHT22;1116;51.502;7.414;2022-11-15T16:50:31;13.90;4.40
2543;DHT22;1116;51.502;7.414;2022-11-15T16:53:06;14.40;5.20
2543;DHT22;1116;51.502;7.414;2022-11-15T16:55:37;14.30;5.30
2543;DHT22;1116;51.502;7.414;2022-11-15T16:58:09;14.40;5.50
2543;DHT22;1116;51.502;7.414;2022-11-15T17:00:41;14.40;5.30
2543;DHT22;1116;51.502;7.414;2022-11-15T17:03:13;14.70;5.70
2543;DHT22;1116;51.502;7.414;2022-11-15T17:05:44;14.40;5.50
2543;DHT22;1116;51.502;7.414;2022-11-15T17:08:18;14.40;5.60
2543;DHT22;1116;51.502;7.414;2022-11-15T17:10:51;14.50;5.40
2543;DHT22;1116;51.502;7.414;2022-11-15T17:13:22;14.40;5.20
2543;DHT22;1116;51.502;7.414;2022-11-15T17:16:03;14.70;5.60
2543;DHT22;1116;51.502;7.414;2022-11-15T17:18:34;14.40;5.70
2543;DHT22;1116;51.502;7.414;2022-11-15T17:21:06;14.40;5.60
2543;DHT22;1116;51.502;7.414;2022-11-15T17:23:40;14.40;5.50
2543;DHT22;1116;51.502;7.414;2022-11-15T17:26:13;14.00;5.50